Time;durP1;ratioP1;P1;durP2;ratioP2;P2;SDS_P1;SDS_P2;PMS_P1;PMS_P2;Temp;Humidity;BMP_temperature;BMP_pressure;BME280_temperature;BME280_humidity;BME280_pressure;Samples;Min_cycle;Max_cycle;Signal;HPM_P1;HPM_P2
2023/05/27 00:01:25;;;;;;;26.33;6.75;;;11.50;99.90;;;;;;4956529;28;20461;-72
2023/05/27 00:03:50;;;;;;;26.45;7.38;;;11.40;99.90;;;;;;4956767;29;20058;-73
2023/05/27 00:06:16;;;;;;;26.60;6.70;;;11.40;99.90;;;;;;4948910;28;20527;-73
2023/05/27 00:08:41;;;;;;;24.50;6.50;;;11.40;99.90;;;;;;4952676;29;20050;-73
2023/05/27 00:11:07;;;;;;;26.92;6.88;;;11.40;99.90;;;;;;4956278;28;20382;-73
2023/05/27 00:13:33;;;;;;;26.65;6.75;;;11.40;99.90;;;;;;4955352;29;20031;-73
2023/05/27 00:15:58;;;;;;;29.42;6.65;;;11.30;99.90;;;;;;4946355;29;20023;-73
2023/05/27 00:18:24;;;;;;;30.23;6.75;;;11.30;99.90;;;;;;4956439;29;20031;-73
2023/05/27 00:20:50;;;;;;;29.10;6.43;;;11.30;99.90;;;;;;4951344;29;20407;-73
2023/05/27 00:23:16;;;;;;;21.35;5.78;;;11.30;99.90;;;;;;4956103;29;20030;-72
2023/05/27 00:25:41;;;;;;;25.38;6.03;;;11.20;99.90;;;;;;4956096;29;20027;-73
2023/05/27 00:28:07;;;;;;;28.73;6.63;;;11.20;99.90;;;;;;4956081;29;20027;-73
2023/05/27 00:30:33;;;;;;;28.08;5.78;;;11.20;99.90;;;;;;4955973;29;20356;-73
2023/05/27 00:32:58;;;;;;;23.40;5.50;;;11.20;99.90;;;;;;4954380;28;20079;-73
2023/05/27 00:35:24;;;;;;;24.05;6.03;;;11.20;99.90;;;;;;4956293;28;20027;-73
2023/05/27 00:37:50;;;;;;;21.17;5.55;;;11.10;99.90;;;;;;4955853;29;20039;-73
2023/05/27 00:40:20;;;;;;;19.38;5.05;;;11.10;99.90;;;;;;4955496;29;20491;-73
2023/05/27 00:42:45;;;;;;;24.42;5.93;;;11.00;99.90;;;;;;4942506;29;20026;-73
2023/05/27 00:45:12;;;;;;;22.27;5.53;;;11.00;99.90;;;;;;4956041;28;20471;-73
2023/05/27 00:47:37;;;;;;;27.17;5.65;;;11.00;99.90;;;;;;4955135;29;20498;-74
2023/05/27 00:50:03;;;;;;;18.75;4.80;;;11.00;99.90;;;;;;4950385;29;20345;-74
2023/05/27 00:52:30;;;;;;;23.70;5.35;;;11.00;99.90;;;;;;4955651;29;20062;-74
2023/05/27 00:54:56;;;;;;;24.35;5.10;;;11.00;99.90;;;;;;4955579;28;20359;-74
2023/05/27 00:57:22;;;;;;;19.35;4.63;;;10.90;99.90;;;;;;4952840;29;20034;-73
2023/05/27 00:59:48;;;;;;;20.10;4.75;;;10.90;99.90;;;;;;4948830;29;20031;-74
2023/05/27 01:02:14;;;;;;;19.23;4.97;;;10.90;99.90;;;;;;4955877;28;20456;-72
2023/05/27 01:04:42;;;;;;;18.45;5.25;;;10.80;99.90;;;;;;4954597;28;20069;-73
2023/05/27 01:07:17;;;;;;;23.73;5.13;;;10.80;99.90;;;;;;4955324;28;20167;-73
2023/05/27 01:09:55;;;;;;;25.38;5.28;;;10.80;99.90;;;;;;4953936;28;20031;-73
2023/05/27 01:12:35;;;;;;;19.08;4.78;;;10.80;99.90;;;;;;4955102;28;20031;-72
2023/05/27 01:15:03;;;;;;;18.27;4.78;;;10.70;99.90;;;;;;4955506;29;20343;-73
2023/05/27 01:17:31;;;;;;;26.08;4.97;;;10.60;99.90;;;;;;4954957;28;20023;-73
2023/05/27 01:19:59;;;;;;;19.63;4.53;;;10.60;99.90;;;;;;4954433;29;20023;-73
2023/05/27 01:22:29;;;;;;;23.45;5.00;;;10.60;99.90;;;;;;4954961;29;20027;-73
2023/05/27 01:24:55;;;;;;;19.15;4.65;;;10.60;99.90;;;;;;4955072;28;20062;-73
2023/05/27 01:27:24;;;;;;;21.75;4.70;;;10.60;99.90;;;;;;4953607;28;20054;-73
2023/05/27 01:29:51;;;;;;;21.75;5.10;;;10.60;99.90;;;;;;4954687;28;20040;-73
2023/05/27 01:32:38;;;;;;;21.35;4.78;;;10.50;99.90;;;;;;4954849;28;20130;-73
2023/05/27 01:35:11;;;;;;;20.90;4.70;;;10.50;99.90;;;;;;4954056;29;20035;-72
2023/05/27 01:37:40;;;;;;;16.08;4.93;;;10.50;99.90;;;;;;4949501;29;20027;-73
2023/05/27 01:40:08;;;;;;;21.00;4.53;;;10.50;99.90;;;;;;4953704;29;20113;-72
2023/05/27 01:42:38;;;;;;;22.00;4.97;;;10.40;99.90;;;;;;4953102;28;20016;-73
2023/05/27 01:45:06;;;;;;;22.73;4.80;;;10.40;99.90;;;;;;4951983;28;20019;-73
2023/05/27 01:47:32;;;;;;;16.92;3.95;;;10.40;99.90;;;;;;4954657;28;20106;-73
2023/05/27 01:49:57;;;;;;;17.08;4.60;;;10.40;99.90;;;;;;4954472;29;20115;-74
2023/05/27 01:52:23;;;;;;;20.88;4.95;;;10.40;99.90;;;;;;4948653;28;20024;-73
2023/05/27 01:54:48;;;;;;;21.33;4.68;;;10.40;99.90;;;;;;4954449;29;20371;-74
2023/05/27 01:57:16;;;;;;;21.38;4.68;;;10.30;99.90;;;;;;4954138;29;20024;-74
2023/05/27 01:59:41;;;;;;;20.17;4.85;;;10.30;99.90;;;;;;4947293;28;20032;-74
2023/05/27 02:02:07;;;;;;;19.65;5.05;;;10.30;99.90;;;;;;4952551;29;20023;-74
2023/05/27 02:04:33;;;;;;;21.75;5.15;;;10.30;99.90;;;;;;4954273;29;20063;-74
2023/05/27 02:06:58;;;;;;;22.23;4.75;;;10.30;99.90;;;;;;4953588;28;20030;-74
2023/05/27 02:09:24;;;;;;;16.55;4.45;;;10.20;99.90;;;;;;4942431;29;20027;-74
2023/05/27 02:11:49;;;;;;;18.58;4.25;;;10.20;99.90;;;;;;4954437;29;20035;-73
2023/05/27 02:14:15;;;;;;;20.13;4.60;;;10.20;99.90;;;;;;4950059;28;20035;-73
2023/05/27 02:16:40;;;;;;;16.50;4.18;;;10.20;99.90;;;;;;4954112;29;20118;-73
2023/05/27 02:19:06;;;;;;;19.55;4.38;;;10.20;99.90;;;;;;4954641;28;20019;-73
2023/05/27 02:21:32;;;;;;;19.98;4.70;;;10.20;99.90;;;;;;4947194;28;20023;-73
2023/05/27 02:23:58;;;;;;;23.13;4.60;;;10.10;99.90;;;;;;4946008;29;20026;-73
2023/05/27 02:26:24;;;;;;;21.00;4.97;;;10.10;99.90;;;;;;4953446;28;20020;-74
2023/05/27 02:28:50;;;;;;;19.95;4.68;;;10.10;99.90;;;;;;4950867;28;20035;-72
2023/05/27 02:31:16;;;;;;;26.08;4.80;;;10.10;99.90;;;;;;4953545;28;20101;-73
2023/05/27 02:33:41;;;;;;;17.60;4.60;;;10.10;99.90;;;;;;4953724;28;20023;-73
2023/05/27 02:36:10;;;;;;;17.08;4.88;;;10.10;99.90;;;;;;4951093;28;20054;-73
2023/05/27 02:38:36;;;;;;;15.70;4.20;;;10.10;99.90;;;;;;4950058;29;20082;-73
2023/05/27 02:41:02;;;;;;;19.88;4.68;;;10.10;99.90;;;;;;4954418;28;20042;-73
2023/05/27 02:43:28;;;;;;;17.67;4.70;;;10.00;99.90;;;;;;4954065;28;20027;-74
2023/05/27 02:45:54;;;;;;;17.20;4.50;;;10.00;99.90;;;;;;4953895;28;20054;-73
2023/05/27 02:48:19;;;;;;;18.85;4.35;;;9.90;99.90;;;;;;4954182;29;20027;-73
2023/05/27 02:50:45;;;;;;;21.58;5.35;;;9.90;99.90;;;;;;4952559;29;20114;-73
2023/05/27 02:53:11;;;;;;;18.90;4.53;;;9.90;99.90;;;;;;4953987;28;20031;-73
2023/05/27 02:55:36;;;;;;;15.15;4.72;;;9.90;99.90;;;;;;4953627;29;20024;-73
2023/05/27 02:58:04;;;;;;;20.70;4.90;;;9.90;99.90;;;;;;4951668;28;20019;-73
2023/05/27 03:00:30;;;;;;;17.98;4.65;;;9.90;99.90;;;;;;4956727;28;20027;-72
2023/05/27 03:02:56;;;;;;;24.50;4.93;;;9.80;99.90;;;;;;4958533;28;20031;-72
2023/05/27 03:05:21;;;;;;;20.13;5.18;;;9.80;99.90;;;;;;4954744;28;20143;-73
2023/05/27 03:07:47;;;;;;;20.85;4.82;;;9.80;99.90;;;;;;4949032;29;20406;-73
2023/05/27 03:10:13;;;;;;;19.70;4.63;;;9.80;99.90;;;;;;4953137;28;20474;-73
2023/05/27 03:12:38;;;;;;;17.52;4.68;;;9.80;99.90;;;;;;4955747;29;20431;-73
2023/05/27 03:15:10;;;;;;;24.27;5.10;;;9.70;99.90;;;;;;4957395;29;20033;-72
2023/05/27 03:17:37;;;;;;;16.15;4.80;;;9.70;99.90;;;;;;4957208;29;20038;-73
2023/05/27 03:20:04;;;;;;;17.20;4.43;;;9.70;99.90;;;;;;4957355;28;20027;-74
2023/05/27 03:22:30;;;;;;;16.05;4.50;;;9.70;99.90;;;;;;4944264;28;20042;-74
2023/05/27 03:24:55;;;;;;;18.45;4.80;;;9.70;99.90;;;;;;4955940;28;20030;-74
2023/05/27 03:27:21;;;;;;;18.77;5.20;;;9.60;99.90;;;;;;4957139;28;20632;-74
2023/05/27 03:29:47;;;;;;;17.70;4.80;;;9.60;99.90;;;;;;4956905;29;20035;-74
2023/05/27 03:32:12;;;;;;;21.48;5.13;;;9.60;99.90;;;;;;4954941;28;20023;-74
2023/05/27 03:34:38;;;;;;;17.58;5.32;;;9.50;99.90;;;;;;4951056;29;20557;-74
2023/05/27 03:37:06;;;;;;;21.23;4.97;;;9.50;99.90;;;;;;4960826;29;20415;-74
2023/05/27 03:39:31;;;;;;;19.33;5.18;;;9.50;99.90;;;;;;4953345;29;20055;-74
2023/05/27 03:41:57;;;;;;;16.73;4.75;;;9.50;99.90;;;;;;4949859;29;20029;-73
2023/05/27 03:44:23;;;;;;;20.77;4.90;;;9.50;99.90;;;;;;4956796;28;20085;-73
2023/05/27 03:46:49;;;;;;;20.48;4.60;;;9.50;99.90;;;;;;4949075;29;20023;-73
2023/05/27 03:49:15;;;;;;;21.08;5.18;;;9.40;99.90;;;;;;4957345;29;20038;-73
2023/05/27 03:51:41;;;;;;;21.25;4.57;;;9.40;99.90;;;;;;4957284;29;20403;-73
2023/05/27 03:54:07;;;;;;;18.17;5.07;;;9.40;99.90;;;;;;4957141;28;20050;-73
2023/05/27 03:56:32;;;;;;;16.98;4.65;;;9.40;99.90;;;;;;4956925;29;20051;-72
2023/05/27 03:58:58;;;;;;;22.83;5.45;;;9.40;99.90;;;;;;4951794;29;20027;-72
2023/05/27 04:01:24;;;;;;;25.48;5.68;;;9.40;99.90;;;;;;4951300;29;20035;-73
2023/05/27 04:03:50;;;;;;;21.15;5.07;;;9.40;99.90;;;;;;4943201;29;20027;-73
2023/05/27 04:06:15;;;;;;;20.75;5.60;;;9.40;99.90;;;;;;4956871;28;20031;-73
2023/05/27 04:08:41;;;;;;;24.50;5.38;;;9.30;99.90;;;;;;4955907;28;20470;-73
2023/05/27 04:11:10;;;;;;;19.50;4.60;;;9.40;99.90;;;;;;4956820;29;20106;-73
2023/05/27 04:13:36;;;;;;;22.15;5.45;;;9.40;99.90;;;;;;4956401;29;20020;-73
2023/05/27 04:16:02;;;;;;;21.77;5.07;;;9.40;99.90;;;;;;4951780;28;20467;-73
2023/05/27 04:18:27;;;;;;;19.70;5.30;;;9.40;99.90;;;;;;4951473;29;20047;-73
2023/05/27 04:20:53;;;;;;;22.23;5.95;;;9.40;99.90;;;;;;4956020;29;20047;-73
2023/05/27 04:23:19;;;;;;;22.23;5.05;;;9.40;99.90;;;;;;4956365;29;20030;-73
2023/05/27 04:25:44;;;;;;;21.38;5.07;;;9.30;99.90;;;;;;4956284;28;20030;-73
2023/05/27 04:28:10;;;;;;;21.45;4.95;;;9.40;99.90;;;;;;4956190;29;20467;-74
2023/05/27 04:30:36;;;;;;;16.23;5.25;;;9.40;99.90;;;;;;4956762;28;20518;-74
2023/05/27 04:33:02;;;;;;;18.92;4.72;;;9.50;99.90;;;;;;4956237;29;20422;-73
2023/05/27 04:35:30;;;;;;;22.77;5.05;;;9.50;99.90;;;;;;4955135;28;20035;-74
2023/05/27 04:37:58;;;;;;;17.42;5.20;;;9.50;99.90;;;;;;4956748;28;20046;-74
2023/05/27 04:40:24;;;;;;;19.80;4.82;;;9.50;99.90;;;;;;4951865;28;20070;-72
2023/05/27 04:42:50;;;;;;;20.08;5.03;;;9.50;99.90;;;;;;4950766;29;20028;-74
2023/05/27 04:45:16;;;;;;;19.38;5.38;;;9.60;99.90;;;;;;4955933;29;20130;-72
2023/05/27 04:47:42;;;;;;;19.77;4.80;;;9.60;99.90;;;;;;4951277;28;20023;-73
2023/05/27 04:50:10;;;;;;;21.17;5.13;;;9.60;99.90;;;;;;4955861;29;20111;-74
2023/05/27 04:52:38;;;;;;;17.95;4.68;;;9.60;99.90;;;;;;4955738;28;20019;-73
2023/05/27 04:55:05;;;;;;;25.98;5.72;;;9.60;99.90;;;;;;4956058;28;20023;-73
2023/05/27 04:57:31;;;;;;;24.83;4.95;;;9.60;99.90;;;;;;4949038;28;20513;-73
2023/05/27 05:02:35;;;;;;;21.50;5.15;;;9.70;99.90;;;;;;4955075;28;20451;-73
2023/05/27 05:05:06;;;;;;;19.50;4.90;;;9.70;99.90;;;;;;4955654;29;20466;-73
2023/05/27 05:07:33;;;;;;;22.00;5.20;;;9.70;99.90;;;;;;4955513;28;20035;-72
2023/05/27 05:09:59;;;;;;;18.20;5.78;;;9.80;99.90;;;;;;4955397;28;20031;-73
2023/05/27 05:12:25;;;;;;;23.92;5.43;;;9.70;99.90;;;;;;4946334;29;20020;-73
2023/05/27 05:14:52;;;;;;;23.58;5.60;;;9.80;99.90;;;;;;4946707;28;20071;-73
2023/05/27 05:17:18;;;;;;;21.20;5.43;;;9.80;99.90;;;;;;4954812;29;20048;-73
2023/05/27 05:19:45;;;;;;;26.73;5.82;;;9.80;99.90;;;;;;4954637;28;20025;-73
2023/05/27 05:22:13;;;;;;;24.40;5.47;;;9.90;99.90;;;;;;4942728;28;20020;-73
2023/05/27 05:24:40;;;;;;;25.17;6.07;;;9.90;99.90;;;;;;4954880;29;20455;-74
2023/05/27 05:27:07;;;;;;;22.92;5.38;;;9.90;99.90;;;;;;4954951;28;20034;-73
2023/05/27 05:29:32;;;;;;;21.60;5.43;;;10.00;99.90;;;;;;4952967;29;20030;-73
2023/05/27 05:31:58;;;;;;;22.20;5.75;;;10.00;99.90;;;;;;4954961;28;20023;-73
2023/05/27 05:34:24;;;;;;;21.20;5.25;;;10.00;99.90;;;;;;4949280;29;20062;-73
2023/05/27 05:36:49;;;;;;;28.10;6.18;;;10.10;99.90;;;;;;4948562;29;20038;-73
2023/05/27 05:39:15;;;;;;;16.90;4.90;;;10.10;99.90;;;;;;4953741;28;20055;-73
2023/05/27 05:41:41;;;;;;;22.85;5.45;;;10.10;99.90;;;;;;4954093;29;20435;-73
2023/05/27 05:44:07;;;;;;;27.25;6.22;;;10.10;99.90;;;;;;4954399;28;20437;-74
2023/05/27 05:46:33;;;;;;;21.98;6.13;;;10.20;99.90;;;;;;4954987;29;20023;-74
2023/05/27 05:48:58;;;;;;;21.30;5.40;;;10.20;99.90;;;;;;4954083;29;20019;-74
2023/05/27 05:51:24;;;;;;;21.75;5.50;;;10.20;99.90;;;;;;4954852;28;20418;-74
2023/05/27 05:53:49;;;;;;;19.50;4.97;;;10.30;99.90;;;;;;4940836;28;20039;-73
2023/05/27 05:56:15;;;;;;;20.20;4.97;;;10.40;99.90;;;;;;4941540;29;20026;-73
2023/05/27 05:58:41;;;;;;;20.63;5.35;;;10.40;99.90;;;;;;4954663;29;20350;-73
2023/05/27 06:01:06;;;;;;;24.38;5.30;;;10.40;99.90;;;;;;4953689;29;20031;-73
2023/05/27 06:03:32;;;;;;;22.52;5.25;;;10.50;99.90;;;;;;4954458;29;20107;-73
2023/05/27 06:05:58;;;;;;;34.08;6.70;;;10.50;99.90;;;;;;4954646;28;20521;-73
2023/05/27 06:08:24;;;;;;;24.27;5.78;;;10.50;99.90;;;;;;4951076;28;20040;-73
2023/05/27 06:10:50;;;;;;;21.80;6.00;;;10.60;99.90;;;;;;4954017;28;20035;-74
2023/05/27 06:13:16;;;;;;;30.02;5.53;;;10.60;99.90;;;;;;4945758;28;20055;-73
2023/05/27 06:15:42;;;;;;;20.58;5.55;;;10.70;99.90;;;;;;4945396;29;20055;-73
2023/05/27 06:18:07;;;;;;;21.00;5.20;;;10.70;99.90;;;;;;4951934;29;20094;-73
2023/05/27 06:20:33;;;;;;;23.83;6.03;;;10.70;99.90;;;;;;4951355;29;20494;-72
2023/05/27 06:22:59;;;;;;;24.67;5.95;;;10.80;99.90;;;;;;4954406;28;20042;-73
2023/05/27 06:25:24;;;;;;;21.73;5.10;;;10.80;99.90;;;;;;4953764;28;20029;-73
2023/05/27 06:27:50;;;;;;;22.73;5.32;;;10.90;99.90;;;;;;4941530;29;20375;-73
2023/05/27 06:30:16;;;;;;;25.48;5.72;;;10.90;99.90;;;;;;4951525;28;20050;-73
2023/05/27 06:32:42;;;;;;;26.08;5.60;;;11.00;99.90;;;;;;4947540;29;20036;-73
2023/05/27 06:35:08;;;;;;;25.63;5.75;;;11.10;99.90;;;;;;4947152;29;20431;-73
2023/05/27 06:37:34;;;;;;;20.38;5.32;;;11.10;99.90;;;;;;4954562;29;20082;-73
2023/05/27 06:39:59;;;;;;;23.10;5.57;;;11.20;99.90;;;;;;4954768;29;20117;-73
2023/05/27 06:42:26;;;;;;;22.63;5.40;;;11.30;99.90;;;;;;4946411;28;20023;-73
2023/05/27 06:44:52;;;;;;;25.08;5.82;;;11.40;99.90;;;;;;4953322;28;20703;-73
2023/05/27 06:47:17;;;;;;;25.13;5.88;;;11.40;99.90;;;;;;4951540;29;20031;-73
2023/05/27 06:49:43;;;;;;;20.23;4.95;;;11.50;99.90;;;;;;4949494;28;20016;-73
2023/05/27 06:52:09;;;;;;;19.05;5.43;;;11.60;99.90;;;;;;4944561;29;20118;-73
2023/05/27 06:54:36;;;;;;;22.10;6.18;;;11.70;99.90;;;;;;4940353;29;20680;-73
2023/05/27 06:57:02;;;;;;;18.00;5.15;;;11.80;99.90;;;;;;4952978;28;20119;-73
2023/05/27 06:59:28;;;;;;;24.50;6.00;;;11.90;99.90;;;;;;4953517;29;20023;-73
2023/05/27 07:01:56;;;;;;;23.90;5.32;;;12.00;99.90;;;;;;4951333;29;20030;-74
2023/05/27 07:04:21;;;;;;;26.17;5.93;;;12.10;99.90;;;;;;4945776;29;20035;-75
2023/05/27 07:06:47;;;;;;;20.23;5.25;;;12.20;99.90;;;;;;4951777;28;20427;-75
2023/05/27 07:09:13;;;;;;;22.13;5.88;;;12.30;99.90;;;;;;4934065;29;20099;-74
2023/05/27 07:11:40;;;;;;;25.00;6.18;;;12.40;99.90;;;;;;4948651;29;20087;-75
2023/05/27 07:14:05;;;;;;;21.17;5.57;;;12.50;99.90;;;;;;4952524;28;20467;-74
2023/05/27 07:16:31;;;;;;;24.05;5.85;;;12.60;99.90;;;;;;4953195;28;20086;-75
2023/05/27 07:18:58;;;;;;;28.25;5.85;;;12.70;99.90;;;;;;4948771;28;20030;-75
2023/05/27 07:21:23;;;;;;;18.35;5.60;;;12.90;99.90;;;;;;4941372;28;20075;-75
2023/05/27 07:23:49;;;;;;;24.48;5.57;;;13.00;99.90;;;;;;4947197;28;20898;-77
2023/05/27 07:26:15;;;;;;;20.13;5.43;;;13.20;99.90;;;;;;4946223;29;20067;-75
2023/05/27 07:28:40;;;;;;;27.05;6.22;;;13.40;99.90;;;;;;4947221;29;20106;-75
2023/05/27 07:31:06;;;;;;;27.45;5.65;;;13.50;99.90;;;;;;4946832;29;20024;-75
2023/05/27 07:33:32;;;;;;;23.65;5.70;;;13.70;99.90;;;;;;4953879;29;20038;-75
2023/05/27 07:35:57;;;;;;;21.10;5.85;;;13.90;99.90;;;;;;4946384;29;20031;-74
2023/05/27 07:38:23;;;;;;;24.48;5.60;;;14.10;99.90;;;;;;4952825;28;20034;-75
2023/05/27 07:40:49;;;;;;;19.83;5.85;;;14.20;99.90;;;;;;4940398;29;20107;-75
2023/05/27 07:43:15;;;;;;;22.15;5.82;;;14.40;99.90;;;;;;4953161;28;20027;-74
2023/05/27 07:45:43;;;;;;;26.70;6.00;;;14.50;99.90;;;;;;4965212;28;20023;-73
2023/05/27 07:48:08;;;;;;;25.95;5.80;;;14.60;99.90;;;;;;4967168;28;20031;-75
2023/05/27 07:50:34;;;;;;;19.70;5.25;;;14.80;99.90;;;;;;4960993;28;20039;-74
2023/05/27 07:53:00;;;;;;;19.83;5.18;;;15.00;99.90;;;;;;4953852;28;20106;-75
2023/05/27 07:55:26;;;;;;;22.13;5.68;;;15.10;99.90;;;;;;4959020;28;20118;-74
2023/05/27 07:57:55;;;;;;;19.67;4.95;;;15.20;99.90;;;;;;4957586;28;20061;-75
2023/05/27 08:00:21;;;;;;;22.95;5.97;;;15.30;99.90;;;;;;4957529;28;20034;-76
2023/05/27 08:02:46;;;;;;;17.38;5.53;;;15.40;99.90;;;;;;4957539;28;20037;-74
2023/05/27 08:05:12;;;;;;;28.60;6.88;;;15.60;99.90;;;;;;4957604;29;20394;-75
2023/05/27 08:07:38;;;;;;;21.27;6.00;;;15.70;99.90;;;;;;4951028;28;20537;-75
2023/05/27 08:10:05;;;;;;;19.60;5.50;;;15.90;99.90;;;;;;4956030;29;20032;-75
2023/05/27 08:12:31;;;;;;;24.73;6.38;;;16.00;99.90;;;;;;4957277;28;20030;-77
2023/05/27 08:14:57;;;;;;;22.05;5.65;;;16.10;99.90;;;;;;4948503;28;20020;-77
2023/05/27 08:17:23;;;;;;;23.55;5.95;;;16.20;99.90;;;;;;4954967;29;20094;-77
2023/05/27 08:19:48;;;;;;;17.67;5.35;;;16.30;99.90;;;;;;4955624;29;20466;-77
2023/05/27 08:22:14;;;;;;;23.98;6.40;;;16.30;99.90;;;;;;4951542;29;20031;-76
2023/05/27 08:24:40;;;;;;;21.67;5.35;;;16.50;99.90;;;;;;4955382;28;20118;-77
2023/05/27 08:27:06;;;;;;;23.70;6.00;;;16.50;99.90;;;;;;4952025;28;20027;-77
2023/05/27 08:29:32;;;;;;;21.27;5.63;;;16.50;99.90;;;;;;4951896;29;20042;-76
2023/05/27 08:31:59;;;;;;;22.63;5.70;;;16.60;99.90;;;;;;4956721;28;20152;-76
2023/05/27 08:34:25;;;;;;;23.35;5.57;;;16.80;99.90;;;;;;4954189;28;20028;-76
2023/05/27 08:36:51;;;;;;;27.33;5.43;;;16.90;99.90;;;;;;4955257;28;20118;-77
2023/05/27 08:39:17;;;;;;;21.38;5.18;;;17.00;99.90;;;;;;4947421;28;20702;-75
2023/05/27 08:41:43;;;;;;;19.65;5.10;;;17.00;99.90;;;;;;4950300;29;20023;-75
2023/05/27 08:44:09;;;;;;;25.63;5.93;;;17.20;99.90;;;;;;4948273;29;20062;-75
2023/05/27 08:46:35;;;;;;;22.35;5.63;;;17.20;99.90;;;;;;4957334;28;20024;-75
2023/05/27 08:49:01;;;;;;;22.13;5.03;;;17.30;99.90;;;;;;4957740;29;20055;-76
2023/05/27 08:51:27;;;;;;;23.55;5.68;;;17.40;99.90;;;;;;4944397;29;20042;-75
2023/05/27 08:53:53;;;;;;;18.83;5.20;;;17.50;99.90;;;;;;4957193;28;20023;-75
2023/05/27 08:56:22;;;;;;;24.83;6.00;;;17.70;99.90;;;;;;4956951;28;20070;-75
2023/05/27 08:58:48;;;;;;;21.58;5.25;;;17.80;99.90;;;;;;4953386;28;20031;-75
2023/05/27 09:01:21;;;;;;;21.58;5.13;;;17.80;99.90;;;;;;4941771;28;20376;-75
2023/05/27 09:03:47;;;;;;;19.73;5.80;;;17.90;99.90;;;;;;4956321;29;20121;-76
2023/05/27 09:06:13;;;;;;;22.65;4.80;;;18.00;99.90;;;;;;4944308;29;20090;-76
2023/05/27 09:08:39;;;;;;;19.88;5.32;;;18.10;99.90;;;;;;4946034;28;20570;-77
2023/05/27 09:11:08;;;;;;;24.63;5.78;;;18.20;99.90;;;;;;4954382;28;20043;-74
2023/05/27 09:13:34;;;;;;;23.00;5.57;;;18.30;99.90;;;;;;4956385;29;20042;-74
2023/05/27 09:16:02;;;;;;;26.00;5.45;;;18.50;99.90;;;;;;4957173;28;20083;-73
2023/05/27 09:18:33;;;;;;;22.95;5.57;;;18.60;99.90;;;;;;4956804;28;20047;-74
2023/05/27 09:20:59;;;;;;;17.20;5.40;;;18.70;99.90;;;;;;4957085;29;20047;-74
2023/05/27 09:23:25;;;;;;;18.75;5.22;;;18.80;99.90;;;;;;4955687;28;20034;-74
2023/05/27 09:25:53;;;;;;;15.68;4.95;;;18.90;99.90;;;;;;4955786;28;20371;-74
2023/05/27 09:28:26;;;;;;;18.85;5.15;;;19.00;99.90;;;;;;4955806;29;20490;-72
2023/05/27 09:31:02;;;;;;;15.20;4.57;;;19.20;99.90;;;;;;4954541;29;20029;-74
2023/05/27 09:33:32;;;;;;;15.25;4.75;;;19.50;99.90;;;;;;4953161;28;20082;-74
2023/05/27 09:36:02;;;;;;;18.98;5.28;;;19.70;99.90;;;;;;4954891;28;20023;-74
2023/05/27 09:38:35;;;;;;;19.98;5.50;;;19.70;99.90;;;;;;4954980;29;20101;-74
2023/05/27 09:41:02;;;;;;;21.42;5.28;;;19.80;99.90;;;;;;4945912;28;20036;-74
2023/05/27 09:43:29;;;;;;;18.80;5.20;;;19.80;99.80;;;;;;4954422;28;20082;-74
2023/05/27 09:46:01;;;;;;;21.15;6.10;;;19.90;99.30;;;;;;4954151;29;20019;-74
2023/05/27 09:48:30;;;;;;;21.75;5.45;;;20.00;99.00;;;;;;4954683;29;20031;-74
2023/05/27 09:50:57;;;;;;;23.35;5.75;;;20.10;98.70;;;;;;4954848;28;20422;-74
2023/05/27 09:53:24;;;;;;;20.17;5.70;;;20.20;98.40;;;;;;4953226;28;20027;-73
2023/05/27 09:55:52;;;;;;;22.92;5.47;;;20.30;97.70;;;;;;4946335;29;20110;-74
2023/05/27 09:58:19;;;;;;;22.75;6.10;;;20.30;97.30;;;;;;4955283;29;20110;-73
2023/05/27 10:00:47;;;;;;;20.77;5.90;;;20.40;97.30;;;;;;4954630;29;20027;-73
2023/05/27 10:03:13;;;;;;;19.48;5.40;;;20.50;97.00;;;;;;4954767;28;20451;-73
2023/05/27 10:05:40;;;;;;;22.48;5.70;;;20.70;96.70;;;;;;4954068;28;20019;-74
2023/05/27 10:08:06;;;;;;;20.77;6.00;;;20.70;95.80;;;;;;4953530;28;20082;-74
2023/05/27 10:10:33;;;;;;;18.40;5.13;;;20.80;95.40;;;;;;4942690;29;20027;-74
2023/05/27 10:12:59;;;;;;;20.52;5.60;;;20.80;95.30;;;;;;4952049;29;20120;-74
2023/05/27 10:15:30;;;;;;;21.52;5.50;;;21.00;95.00;;;;;;4954821;29;20023;-72
2023/05/27 10:17:56;;;;;;;22.02;5.97;;;21.10;94.50;;;;;;4943704;28;20087;-73
2023/05/27 10:20:37;;;;;;;20.83;6.45;;;21.20;94.00;;;;;;4949949;29;20031;-74
2023/05/27 10:23:30;;;;;;;22.08;6.25;;;21.30;93.40;;;;;;4953988;29;20128;-74
2023/05/27 10:26:00;;;;;;;15.55;5.35;;;21.30;92.50;;;;;;4954350;28;20027;-73
2023/05/27 10:28:31;;;;;;;22.23;6.43;;;21.30;92.50;;;;;;4954225;29;20114;-73
2023/05/27 10:31:19;;;;;;;32.33;9.07;;;21.30;92.20;;;;;;4954886;28;20050;-73
2023/05/27 10:33:47;;;;;;;20.35;6.35;;;21.30;91.30;;;;;;4954055;28;20035;-74
2023/05/27 10:36:14;;;;;;;42.42;7.65;;;21.20;92.60;;;;;;4950058;28;20019;-74
2023/05/27 10:38:55;;;;;;;19.25;6.30;;;21.30;91.70;;;;;;4949067;28;20030;-74
2023/05/27 10:41:22;;;;;;;19.23;6.53;;;21.30;90.70;;;;;;4953357;28;20070;-74
2023/05/27 10:43:56;;;;;;;198.80;21.92;;;21.40;90.60;;;;;;4944757;29;20027;-74
2023/05/27 10:46:21;;;;;;;29.75;7.22;;;21.50;89.50;;;;;;4955414;28;20471;-74
2023/05/27 10:48:47;;;;;;;69.38;9.60;;;21.50;89.00;;;;;;4955561;28;20035;-73
2023/05/27 10:51:12;;;;;;;19.58;6.25;;;21.60;88.70;;;;;;4954844;28;20031;-74
2023/05/27 10:53:38;;;;;;;20.45;6.05;;;21.80;88.20;;;;;;4953993;28;20022;-74
2023/05/27 10:56:04;;;;;;;21.90;6.38;;;22.00;87.50;;;;;;4954791;28;20034;-74
2023/05/27 10:58:34;;;;;;;21.55;6.38;;;22.20;87.40;;;;;;4955694;28;20023;-77
2023/05/27 11:01:07;;;;;;;21.27;6.03;;;22.40;85.10;;;;;;4955996;29;20027;-74
2023/05/27 11:03:32;;;;;;;19.92;5.65;;;22.40;82.90;;;;;;4955314;28;20105;-74
2023/05/27 11:06:03;;;;;;;22.55;5.88;;;22.30;82.10;;;;;;4955176;28;20098;-74
2023/05/27 11:08:29;;;;;;;24.55;6.18;;;22.40;80.80;;;;;;4953483;28;20034;-76
2023/05/27 11:11:22;;;;;;;17.58;5.93;;;22.40;81.20;;;;;;4946187;29;20055;-76
2023/05/27 11:13:48;;;;;;;19.08;5.57;;;22.50;79.00;;;;;;4955276;28;20063;-76
2023/05/27 11:16:14;;;;;;;18.95;6.28;;;22.50;79.10;;;;;;4955443;29;20069;-76
2023/05/27 11:18:44;;;;;;;22.13;5.28;;;22.70;77.80;;;;;;4954044;28;20016;-75
2023/05/27 11:21:11;;;;;;;19.67;5.68;;;22.80;76.80;;;;;;4951065;28;20102;-76
2023/05/27 11:23:43;;;;;;;22.92;6.72;;;22.90;75.90;;;;;;4949890;29;20034;-75
2023/05/27 11:26:21;;;;;;;22.75;6.68;;;22.90;74.60;;;;;;4958135;28;20110;-77
2023/05/27 11:28:57;;;;;;;20.45;5.90;;;22.90;73.80;;;;;;4957132;28;20085;-77
2023/05/27 11:31:31;;;;;;;16.42;6.07;;;22.90;74.20;;;;;;4952979;29;20259;-76
2023/05/27 11:33:57;;;;;;;20.77;6.93;;;22.80;72.70;;;;;;4953834;28;20042;-75
2023/05/27 11:36:26;;;;;;;22.38;5.68;;;22.60;72.50;;;;;;4958955;28;20011;-75
2023/05/27 11:38:52;;;;;;;20.73;5.65;;;22.60;71.70;;;;;;4958620;28;20055;-76
2023/05/27 11:41:23;;;;;;;17.33;5.68;;;22.70;70.80;;;;;;4958635;29;20073;-75
2023/05/27 11:43:55;;;;;;;18.08;5.43;;;22.70;69.70;;;;;;4957813;29;20015;-74
2023/05/27 11:46:21;;;;;;;20.25;6.05;;;22.80;70.60;;;;;;4955255;28;20027;-75
2023/05/27 11:48:48;;;;;;;14.93;5.45;;;22.90;69.50;;;;;;4959336;28;20059;-74
2023/05/27 11:51:14;;;;;;;16.20;5.63;;;23.00;68.80;;;;;;4961021;29;20023;-75
2023/05/27 11:53:46;;;;;;;17.55;6.13;;;23.10;68.60;;;;;;4961519;28;20155;-75
2023/05/27 11:56:14;;;;;;;23.65;5.90;;;23.30;68.30;;;;;;4959385;29;20047;-76
2023/05/27 11:58:39;;;;;;;18.10;5.93;;;23.40;67.90;;;;;;4944722;28;20039;-76
2023/05/27 12:01:05;;;;;;;17.80;5.38;;;23.30;67.40;;;;;;4958649;29;20019;-76
2023/05/27 12:03:33;;;;;;;22.42;5.75;;;23.40;66.60;;;;;;4956257;28;20079;-76
2023/05/27 12:05:59;;;;;;;16.80;5.53;;;23.40;66.30;;;;;;4947220;29;20051;-76
2023/05/27 12:08:24;;;;;;;19.67;5.93;;;23.40;66.20;;;;;;4958280;28;20062;-75
2023/05/27 12:10:53;;;;;;;15.80;6.50;;;23.40;65.60;;;;;;4957633;28;20082;-75
2023/05/27 12:13:19;;;;;;;16.95;5.32;;;23.40;64.70;;;;;;4956721;28;20090;-76
2023/05/27 12:15:45;;;;;;;20.48;6.00;;;23.30;64.40;;;;;;4947727;29;20034;-75
2023/05/27 12:18:18;;;;;;;17.25;5.80;;;23.30;65.30;;;;;;4942506;28;20095;-73
2023/05/27 12:20:44;;;;;;;17.80;6.00;;;23.40;64.70;;;;;;4957942;29;20035;-75
2023/05/27 12:23:10;;;;;;;19.08;6.35;;;23.40;64.50;;;;;;4960844;28;20026;-74
2023/05/27 12:25:35;;;;;;;21.73;5.97;;;23.50;65.10;;;;;;4959594;29;20325;-73
2023/05/27 12:28:01;;;;;;;19.80;6.00;;;23.60;65.30;;;;;;4957350;28;20030;-74
2023/05/27 12:30:27;;;;;;;16.45;5.55;;;23.70;64.20;;;;;;4956435;28;20023;-76
2023/05/27 12:32:52;;;;;;;19.42;6.10;;;23.70;64.40;;;;;;4958254;28;20062;-76
2023/05/27 12:35:18;;;;;;;16.80;5.50;;;23.80;62.90;;;;;;4950152;29;20498;-77
2023/05/27 12:37:44;;;;;;;19.73;5.80;;;23.90;62.90;;;;;;4946034;29;20028;-76
2023/05/27 12:40:14;;;;;;;20.52;5.80;;;24.00;62.20;;;;;;4939170;29;20075;-75